createdAt,value
2017-08-11T00:02:16.657Z,78.13
2017-08-11T00:04:46.300Z,79.60
2017-08-11T00:07:15.730Z,76.87
2017-08-11T00:09:45.288Z,78.37
2017-08-11T00:12:14.414Z,79.10
2017-08-11T00:14:43.892Z,76.53
2017-08-11T00:17:14.221Z,75.20
2017-08-11T00:19:43.540Z,74.70
2017-08-11T00:22:12.993Z,77.33
2017-08-11T00:24:42.345Z,81.07
2017-08-11T00:27:11.636Z,78.13
2017-08-11T00:29:42.368Z,73.60
2017-08-11T00:32:12.122Z,72.10
2017-08-11T00:34:41.632Z,72.30
2017-08-11T00:37:10.486Z,71.83
2017-08-11T00:39:39.845Z,69.67
2017-08-11T00:42:09.222Z,71.10
2017-08-11T00:44:38.526Z,67.70
2017-08-11T00:47:08.220Z,74.50
2017-08-11T00:49:37.295Z,70.93
2017-08-11T00:52:06.959Z,71.47
2017-08-11T00:54:36.336Z,69.87
2017-08-11T00:57:06.284Z,72.80
2017-08-11T00:59:38.250Z,71.47
2017-08-11T01:02:07.833Z,67.10
2017-08-11T01:04:37.773Z,69.40
2017-08-11T01:07:08.110Z,69.50
2017-08-11T01:09:39.000Z,70.40
2017-08-11T01:12:08.849Z,66.23
2017-08-11T01:14:38.073Z,72.60
2017-08-11T01:17:06.791Z,69.03
2017-08-11T01:19:36.153Z,71.17
2017-08-11T01:22:05.153Z,71.03
2017-08-11T01:24:35.012Z,67.37
2017-08-11T01:27:04.080Z,64.23
2017-08-11T01:29:33.627Z,65.90
2017-08-11T01:32:03.288Z,65.07
2017-08-11T01:34:32.636Z,62.37
2017-08-11T01:37:01.721Z,62.63
2017-08-11T01:39:31.183Z,62.97
2017-08-11T01:42:00.309Z,60.20
2017-08-11T01:44:30.719Z,57.80
2017-08-11T01:47:00.019Z,60.50
2017-08-11T01:49:29.266Z,61.93
2017-08-11T01:51:59.463Z,59.57
2017-08-11T01:54:28.845Z,59.93
2017-08-11T01:56:58.345Z,60.70
2017-08-11T01:59:29.122Z,58.00
2017-08-11T02:01:58.308Z,58.60
2017-08-11T02:04:27.343Z,57.07
2017-08-11T02:06:56.763Z,58.43
2017-08-11T02:09:26.219Z,57.10
2017-08-11T02:11:55.959Z,58.40
2017-08-11T02:14:25.460Z,55.87
2017-08-11T02:16:54.637Z,67.23
2017-08-11T02:19:23.982Z,58.83
2017-08-11T02:21:53.556Z,59.07
2017-08-11T02:24:23.531Z,57.47
2017-08-11T02:26:52.803Z,56.43
2017-08-11T02:29:22.251Z,56.00
2017-08-11T02:31:51.451Z,60.20
2017-08-11T02:34:20.582Z,57.13
2017-08-11T02:36:50.191Z,57.37
2017-08-11T02:39:19.457Z,59.77
2017-08-11T02:41:48.724Z,56.87
2017-08-11T02:44:18.436Z,57.43
2017-08-11T02:46:47.548Z,56.87
2017-08-11T02:49:17.622Z,56.80
2017-08-11T02:51:46.991Z,55.23
2017-08-11T02:54:16.260Z,54.77
2017-08-11T02:56:45.780Z,56.13
2017-08-11T02:59:14.755Z,57.60
2017-08-11T03:01:45.228Z,53.83
2017-08-11T03:04:14.697Z,58.20
2017-08-11T03:06:44.111Z,67.83
2017-08-11T03:09:13.604Z,58.33
2017-08-11T03:11:43.265Z,58.80
2017-08-11T03:14:13.238Z,66.17
2017-08-11T03:16:42.348Z,58.63
2017-08-11T03:19:11.604Z,57.70
2017-08-11T03:21:41.018Z,52.67
2017-08-11T03:24:10.262Z,57.60
2017-08-11T03:26:39.813Z,55.17
2017-08-11T03:29:09.342Z,56.23
2017-08-11T03:31:40.143Z,54.77
2017-08-11T03:34:10.325Z,57.53
2017-08-11T03:36:40.293Z,54.67
2017-08-11T03:39:09.682Z,55.03
2017-08-11T03:41:39.018Z,54.70
2017-08-11T03:44:08.409Z,57.37
2017-08-11T03:46:37.937Z,54.33
2017-08-11T03:49:07.406Z,52.37
2017-08-11T03:51:36.888Z,53.90
2017-08-11T03:54:06.229Z,51.30
2017-08-11T03:56:35.922Z,53.93
2017-08-11T03:59:05.550Z,54.13
2017-08-11T04:01:34.816Z,51.93
2017-08-11T04:04:05.415Z,53.30
2017-08-11T04:06:34.514Z,53.00
2017-08-11T04:09:03.958Z,52.23
2017-08-11T04:11:33.440Z,52.30
2017-08-11T04:14:02.823Z,50.70
2017-08-11T04:16:33.304Z,49.50
2017-08-11T04:19:02.576Z,47.93
2017-08-11T04:21:32.724Z,51.17
2017-08-11T04:24:02.296Z,51.80
2017-08-11T04:26:31.617Z,48.27
2017-08-11T04:29:01.080Z,50.20
2017-08-11T04:31:30.653Z,45.23
2017-08-11T04:34:00.240Z,46.70
2017-08-11T04:36:29.735Z,46.93
2017-08-11T04:38:59.083Z,45.67
2017-08-11T04:41:28.991Z,43.60
2017-08-11T04:43:58.105Z,47.47
2017-08-11T04:46:27.554Z,42.03
2017-08-11T04:48:56.834Z,43.47
2017-08-11T04:51:26.081Z,42.97
2017-08-11T04:53:55.339Z,39.93
2017-08-11T04:56:26.525Z,39.97
2017-08-11T04:58:55.609Z,37.07
2017-08-11T05:01:25.133Z,38.17
2017-08-11T05:03:54.297Z,39.00
2017-08-11T05:06:25.702Z,37.20
2017-08-11T05:08:54.983Z,40.10
2017-08-11T05:11:24.216Z,38.93
2017-08-11T05:13:53.667Z,37.57
2017-08-11T05:16:22.692Z,35.63
2017-08-11T05:18:51.794Z,36.10
2017-08-11T05:21:20.948Z,36.80
2017-08-11T05:23:50.396Z,34.90
2017-08-11T05:26:19.491Z,35.90
2017-08-11T05:28:49.009Z,40.77
2017-08-11T05:31:18.460Z,36.80
2017-08-11T05:33:48.331Z,33.17
2017-08-11T05:36:19.985Z,33.30
2017-08-11T05:38:49.420Z,37.53
2017-08-11T05:41:18.940Z,31.57
2017-08-11T05:43:49.577Z,32.00
2017-08-11T05:46:18.880Z,29.50
2017-08-11T05:48:48.971Z,29.43
2017-08-11T05:51:18.279Z,32.07
2017-08-11T05:53:47.847Z,32.93
2017-08-11T05:56:16.984Z,29.33
2017-08-11T05:58:47.014Z,30.83
2017-08-11T06:01:16.581Z,29.60
2017-08-11T06:03:46.820Z,29.83
2017-08-11T06:06:16.963Z,28.90
2017-08-11T06:08:46.770Z,31.70
2017-08-11T06:11:16.262Z,30.60
2017-08-11T06:13:47.131Z,29.87
2017-08-11T06:16:17.078Z,27.93
2017-08-11T06:18:47.492Z,30.07
2017-08-11T06:21:16.940Z,29.30
2017-08-11T06:23:47.070Z,30.03
2017-08-11T06:26:17.166Z,29.47
2017-08-11T06:28:46.405Z,28.83
2017-08-11T06:31:15.943Z,27.10
2017-08-11T06:33:45.017Z,32.93
2017-08-11T06:36:14.518Z,28.33
2017-08-11T06:38:44.912Z,28.20
2017-08-11T06:41:14.466Z,31.10
2017-08-11T06:43:43.986Z,27.97
2017-08-11T06:46:13.424Z,32.53
2017-08-11T06:48:43.411Z,30.03
2017-08-11T06:51:13.802Z,26.40
2017-08-11T06:53:44.012Z,28.90
2017-08-11T06:56:13.321Z,28.10
2017-08-11T06:58:42.952Z,28.57
2017-08-11T07:01:12.036Z,25.57
2017-08-11T07:03:44.494Z,28.50
2017-08-11T07:06:13.782Z,27.23
2017-08-11T07:08:42.655Z,26.07
2017-08-11T07:11:12.895Z,29.53
2017-08-11T07:13:42.269Z,27.57
2017-08-11T07:16:11.590Z,25.00
2017-08-11T07:18:41.604Z,23.20
2017-08-11T07:21:10.809Z,23.67
2017-08-11T07:23:40.930Z,25.77
2017-08-11T07:26:10.283Z,24.90
2017-08-11T07:28:39.565Z,25.90
2017-08-11T07:31:08.914Z,24.70
2017-08-11T07:33:45.108Z,23.57
2017-08-11T07:36:14.621Z,24.23
2017-08-11T07:38:43.705Z,24.77
2017-08-11T07:41:13.159Z,22.97
2017-08-11T07:43:42.315Z,26.37
2017-08-11T07:46:11.484Z,26.27
2017-08-11T07:48:41.682Z,27.03
2017-08-11T07:51:10.965Z,28.57
2017-08-11T07:53:40.273Z,23.87
2017-08-11T07:56:09.631Z,24.03
2017-08-11T07:58:38.952Z,23.47
2017-08-11T08:01:08.216Z,25.80
2017-08-11T08:03:38.468Z,24.30
2017-08-11T08:06:07.942Z,22.90
2017-08-11T08:08:37.290Z,23.63
2017-08-11T08:11:06.671Z,26.30
2017-08-11T08:13:37.152Z,23.53
2017-08-11T08:16:06.298Z,26.07
2017-08-11T08:18:35.712Z,26.70
2017-08-11T08:21:05.128Z,23.40
2017-08-11T08:23:34.377Z,23.60
2017-08-11T08:26:03.839Z,25.87
2017-08-11T08:28:32.870Z,27.40
2017-08-11T08:31:02.079Z,25.70
2017-08-11T08:33:31.301Z,26.00
2017-08-11T08:36:00.495Z,24.07
2017-08-11T08:38:29.975Z,23.10
2017-08-11T08:40:59.261Z,27.77
2017-08-11T08:43:28.613Z,23.67
2017-08-11T08:45:57.959Z,24.50
2017-08-11T08:48:27.531Z,24.03
2017-08-11T08:50:56.805Z,26.57
2017-08-11T08:53:25.901Z,27.20
2017-08-11T08:55:55.359Z,24.03
2017-08-11T08:58:24.456Z,24.77
2017-08-11T09:00:53.786Z,25.47
2017-08-11T09:03:23.097Z,26.50
2017-08-11T09:05:52.777Z,25.10
2017-08-11T09:08:22.029Z,24.33
2017-08-11T09:10:51.446Z,24.70
2017-08-11T09:13:21.015Z,26.20
2017-08-11T09:15:51.537Z,27.60
2017-08-11T09:18:21.121Z,24.73
2017-08-11T09:20:50.405Z,26.50
2017-08-11T09:23:19.809Z,24.03
2017-08-11T09:26:00.019Z,23.87
2017-08-11T09:28:40.770Z,24.47
2017-08-11T09:31:22.143Z,25.40
2017-08-11T09:34:02.631Z,24.40
2017-08-11T09:36:41.501Z,24.63
2017-08-11T09:39:10.686Z,29.13
2017-08-11T09:41:39.785Z,25.50
2017-08-11T09:44:09.302Z,24.30
2017-08-11T09:46:38.622Z,23.73
2017-08-11T09:49:08.106Z,25.20
2017-08-11T09:51:37.721Z,27.27
2017-08-11T09:54:07.038Z,27.07
2017-08-11T09:56:36.892Z,26.80
2017-08-11T09:59:06.076Z,27.30
2017-08-11T10:01:35.243Z,24.37
2017-08-11T10:04:04.392Z,27.10
2017-08-11T10:06:34.081Z,24.57
2017-08-11T10:09:04.717Z,23.57
2017-08-11T10:11:33.705Z,27.33
2017-08-11T10:14:03.255Z,24.80
2017-08-11T10:16:33.153Z,29.30
2017-08-11T10:19:02.224Z,26.83
2017-08-11T10:21:31.012Z,27.33
2017-08-11T10:24:00.299Z,28.07
2017-08-11T10:26:30.047Z,28.73
2017-08-11T10:28:58.950Z,29.47
2017-08-11T10:31:27.803Z,29.10
2017-08-11T10:33:56.590Z,27.87
2017-08-11T10:36:25.264Z,29.80
2017-08-11T10:38:54.167Z,25.10
2017-08-11T10:41:23.476Z,29.00
2017-08-11T10:43:52.863Z,28.33
2017-08-11T10:46:22.313Z,31.80
2017-08-11T10:48:51.705Z,29.67
2017-08-11T10:51:22.291Z,31.17
2017-08-11T10:53:51.663Z,31.37
2017-08-11T10:56:20.984Z,29.83
2017-08-11T10:58:51.049Z,30.10
2017-08-11T11:01:20.271Z,30.03
2017-08-11T11:03:49.587Z,30.93
2017-08-11T11:06:18.840Z,30.10
2017-08-11T11:08:48.023Z,28.27
2017-08-11T11:11:17.580Z,29.10
2017-08-11T11:13:47.021Z,30.13
2017-08-11T11:16:16.955Z,33.17
2017-08-11T11:18:48.240Z,33.77
2017-08-11T11:21:17.457Z,30.60
2017-08-11T11:23:46.518Z,31.37
2017-08-11T11:26:16.890Z,28.20
2017-08-11T11:28:46.047Z,26.80
2017-08-11T11:31:15.478Z,30.90
2017-08-11T11:33:44.812Z,28.60
2017-08-11T11:36:13.976Z,28.20
2017-08-11T11:38:43.460Z,30.20
2017-08-11T11:41:12.708Z,29.60
2017-08-11T11:43:42.810Z,32.53
2017-08-11T11:46:11.915Z,30.13
2017-08-11T11:48:41.140Z,27.23
2017-08-11T11:51:10.805Z,29.30
2017-08-11T11:53:40.144Z,33.70
2017-08-11T11:56:09.973Z,30.67
2017-08-11T11:58:39.365Z,30.60
2017-08-11T12:01:08.795Z,30.60
2017-08-11T12:03:38.431Z,30.00
2017-08-11T12:06:07.720Z,33.07
2017-08-11T12:08:36.920Z,35.83
2017-08-11T12:11:06.015Z,29.70
2017-08-11T12:13:35.463Z,29.10
2017-08-11T12:16:05.746Z,28.77
2017-08-11T12:18:34.774Z,32.17
2017-08-11T12:21:04.976Z,31.47
2017-08-11T12:23:34.251Z,30.67
2017-08-11T12:26:03.413Z,30.73
2017-08-11T12:28:32.650Z,33.67
2017-08-11T12:31:01.943Z,29.40
2017-08-11T12:33:31.237Z,30.27
2017-08-11T12:36:00.618Z,34.73
2017-08-11T12:38:29.865Z,33.33
2017-08-11T12:40:59.392Z,33.40
2017-08-11T12:43:29.052Z,32.20
2017-08-11T12:45:58.593Z,33.90
2017-08-11T12:48:27.930Z,35.20
2017-08-11T12:50:57.052Z,31.03
2017-08-11T12:53:26.386Z,34.50
2017-08-11T12:55:56.013Z,32.40
2017-08-11T12:58:25.322Z,32.40
2017-08-11T13:00:54.487Z,33.50
2017-08-11T13:03:24.035Z,34.03
2017-08-11T13:05:53.310Z,37.73
2017-08-11T13:08:22.692Z,36.07
2017-08-11T13:10:52.193Z,32.83
2017-08-11T13:13:21.387Z,33.63
2017-08-11T13:15:50.975Z,28.50
2017-08-11T13:18:20.313Z,34.60
2017-08-11T13:20:49.783Z,34.53
2017-08-11T13:23:20.799Z,31.63
2017-08-11T13:25:50.117Z,34.83
2017-08-11T13:28:19.459Z,35.30
2017-08-11T13:30:48.763Z,34.63
2017-08-11T13:33:17.833Z,31.60
2017-08-11T13:35:47.236Z,28.87
2017-08-11T13:38:16.705Z,30.97
2017-08-11T13:40:45.691Z,30.90
2017-08-11T13:43:14.851Z,29.17
2017-08-11T13:45:44.688Z,32.47
2017-08-11T13:48:13.622Z,30.73
2017-08-11T13:50:43.100Z,31.43
2017-08-11T13:53:13.183Z,32.33
2017-08-11T13:55:42.394Z,31.17
2017-08-11T13:58:11.578Z,32.23
2017-08-11T14:00:40.758Z,34.60
2017-08-11T14:03:10.045Z,32.97
2017-08-11T14:05:40.006Z,34.27
2017-08-11T14:08:09.281Z,34.70
2017-08-11T14:10:38.607Z,34.10
2017-08-11T14:13:07.977Z,35.90
2017-08-11T14:15:37.967Z,29.57
2017-08-11T14:18:07.787Z,29.03
2017-08-11T14:20:37.303Z,29.83
2017-08-11T14:23:07.117Z,30.60
2017-08-11T14:25:37.473Z,28.87
2017-08-11T14:28:07.066Z,30.17
2017-08-11T14:30:36.424Z,27.90
2017-08-11T14:33:06.031Z,29.40
2017-08-11T14:35:35.275Z,33.17
2017-08-11T14:38:04.839Z,31.17
2017-08-11T14:40:33.802Z,29.33
2017-08-11T14:43:03.092Z,29.27
2017-08-11T14:45:32.427Z,28.10
2017-08-11T14:48:02.121Z,26.60
2017-08-11T14:50:32.649Z,28.10
2017-08-11T14:53:02.385Z,29.67
2017-08-11T14:55:32.356Z,29.30
2017-08-11T14:58:01.367Z,28.67
2017-08-11T15:00:30.854Z,28.20
2017-08-11T15:03:00.119Z,30.43
2017-08-11T15:05:29.541Z,29.20
2017-08-11T15:07:58.710Z,26.97
2017-08-11T15:10:28.058Z,27.13
2017-08-11T15:12:57.463Z,25.40
2017-08-11T15:15:26.694Z,30.63
2017-08-11T15:17:55.820Z,25.87
2017-08-11T15:20:25.222Z,26.33
2017-08-11T15:22:55.049Z,29.17
2017-08-11T15:25:24.994Z,27.47
2017-08-11T15:27:55.526Z,25.90
2017-08-11T15:30:25.450Z,28.13
2017-08-11T15:32:54.681Z,26.50
2017-08-11T15:35:24.022Z,26.27
2017-08-11T15:38:00.269Z,26.90
2017-08-11T15:40:29.372Z,25.57
2017-08-11T15:42:59.232Z,25.07
2017-08-11T15:45:28.799Z,23.83
2017-08-11T15:47:58.047Z,27.50
2017-08-11T15:50:28.017Z,24.97
2017-08-11T15:52:57.324Z,23.07
2017-08-11T15:55:26.511Z,24.13
2017-08-11T15:57:55.914Z,24.50
2017-08-11T16:00:25.245Z,24.07
2017-08-11T16:02:54.670Z,22.57
2017-08-11T16:05:23.969Z,25.50
2017-08-11T16:07:53.152Z,24.90
2017-08-11T16:10:22.324Z,25.57
2017-08-11T16:12:51.697Z,25.60
2017-08-11T16:15:21.181Z,25.50
2017-08-11T16:17:51.342Z,22.90
2017-08-11T16:20:21.574Z,26.73
2017-08-11T16:22:50.918Z,22.73
2017-08-11T16:25:20.351Z,24.70
2017-08-11T16:27:49.606Z,28.70
2017-08-11T16:30:19.779Z,26.57
2017-08-11T16:32:49.349Z,23.40
2017-08-11T16:35:18.503Z,25.47
2017-08-11T16:37:47.728Z,27.07
2017-08-11T16:40:16.968Z,26.27
2017-08-11T16:42:46.495Z,24.40
2017-08-11T16:45:16.287Z,24.40
2017-08-11T16:47:45.709Z,27.67
2017-08-11T16:50:15.234Z,25.80
2017-08-11T16:52:44.180Z,25.40
2017-08-11T16:55:14.503Z,24.80
2017-08-11T16:57:44.511Z,24.00
2017-08-11T17:00:13.906Z,25.83
2017-08-11T17:02:44.004Z,27.13
2017-08-11T17:05:20.429Z,24.60
2017-08-11T17:07:50.213Z,21.43
2017-08-11T17:10:19.491Z,25.20
2017-08-11T17:12:48.737Z,25.23
2017-08-11T17:15:18.143Z,34.13
2017-08-11T17:17:47.801Z,25.90
2017-08-11T17:20:18.536Z,22.90
2017-08-11T17:22:47.864Z,21.70
2017-08-11T17:25:19.932Z,26.20
2017-08-11T17:27:49.172Z,23.90
2017-08-11T17:30:19.420Z,27.37
2017-08-11T17:32:48.530Z,23.30
2017-08-11T17:35:17.732Z,27.47
2017-08-11T17:37:47.202Z,23.87
2017-08-11T17:40:16.474Z,26.13
2017-08-11T17:42:46.134Z,25.83
2017-08-11T17:45:15.286Z,24.37
2017-08-11T17:47:44.437Z,25.30
2017-08-11T17:50:14.319Z,28.50
2017-08-11T17:52:43.660Z,25.47
2017-08-11T17:55:13.581Z,24.53
2017-08-11T17:57:43.718Z,26.30
2017-08-11T18:00:13.000Z,28.57
2017-08-11T18:02:42.515Z,24.90
2017-08-11T18:05:11.883Z,29.40
2017-08-11T18:07:41.219Z,26.67
2017-08-11T18:10:10.674Z,25.63
2017-08-11T18:12:39.996Z,26.20
2017-08-11T18:15:09.723Z,26.23
2017-08-11T18:17:40.117Z,28.60
2017-08-11T18:20:09.135Z,26.67
2017-08-11T18:22:38.217Z,28.23
2017-08-11T18:25:07.525Z,25.83
2017-08-11T18:27:37.101Z,25.90
2017-08-11T18:30:06.725Z,26.60
2017-08-11T18:32:37.236Z,24.43
2017-08-11T18:35:06.338Z,26.50
2017-08-11T18:37:35.726Z,27.30
2017-08-11T18:40:04.926Z,26.17
2017-08-11T18:42:34.493Z,25.00
2017-08-11T18:45:03.907Z,26.00
2017-08-11T18:47:33.687Z,26.17
2017-08-11T18:50:03.172Z,24.13
2017-08-11T18:52:32.442Z,27.43
2017-08-11T18:55:01.756Z,29.40
2017-08-11T18:57:30.913Z,26.07
2017-08-11T19:00:00.198Z,27.63
2017-08-11T19:02:29.219Z,26.80
2017-08-11T19:04:59.655Z,26.23
2017-08-11T19:07:29.212Z,25.83
2017-08-11T19:09:58.199Z,25.53
2017-08-11T19:12:27.462Z,24.40
2017-08-11T19:14:56.660Z,27.43
2017-08-11T19:17:26.194Z,27.70
2017-08-11T19:19:55.334Z,27.63
2017-08-11T19:22:25.654Z,25.13
2017-08-11T19:24:55.523Z,28.33
2017-08-11T19:27:24.831Z,24.40
2017-08-11T19:29:54.028Z,27.00
2017-08-11T19:32:23.329Z,26.17
2017-08-11T19:34:54.148Z,26.13
2017-08-11T19:37:23.435Z,29.30
2017-08-11T19:39:52.795Z,27.57
2017-08-11T19:42:22.843Z,27.07
2017-08-11T19:44:51.934Z,28.77
2017-08-11T19:47:21.184Z,28.60
2017-08-11T19:49:50.414Z,29.37
2017-08-11T19:52:19.678Z,30.53
2017-08-11T19:54:50.038Z,27.77
2017-08-11T19:57:19.404Z,30.10
2017-08-11T19:59:49.367Z,26.73
2017-08-11T20:02:18.746Z,28.40
2017-08-11T20:04:48.060Z,30.00
2017-08-11T20:07:17.126Z,32.00
2017-08-11T20:09:47.174Z,29.90
2017-08-11T20:12:16.939Z,29.77
2017-08-11T20:14:46.313Z,30.07
2017-08-11T20:17:15.596Z,27.27
2017-08-11T20:19:45.246Z,27.97
2017-08-11T20:22:14.901Z,31.77
2017-08-11T20:24:44.637Z,29.27
2017-08-11T20:27:14.012Z,32.17
2017-08-11T20:29:43.357Z,29.43
2017-08-11T20:32:13.359Z,30.90
2017-08-11T20:34:42.758Z,31.50
2017-08-11T20:37:12.944Z,29.17
2017-08-11T20:39:42.141Z,31.00
2017-08-11T20:42:11.430Z,29.93
2017-08-11T20:44:40.992Z,29.43
2017-08-11T20:47:10.310Z,30.00
2017-08-11T20:49:39.626Z,33.43
2017-08-11T20:52:08.877Z,31.37
2017-08-11T20:54:38.162Z,33.80
2017-08-11T20:57:07.105Z,33.27
2017-08-11T20:59:36.380Z,30.87
2017-08-11T21:02:05.634Z,34.63
2017-08-11T21:04:35.221Z,33.70
2017-08-11T21:07:04.854Z,35.47
2017-08-11T21:09:34.130Z,38.80
2017-08-11T21:12:03.317Z,33.70
2017-08-11T21:14:32.780Z,30.60
2017-08-11T21:17:02.122Z,32.97
2017-08-11T21:19:31.395Z,35.03
2017-08-11T21:22:00.785Z,33.77
2017-08-11T21:24:30.212Z,33.43
2017-08-11T21:26:59.275Z,39.07
2017-08-11T21:29:28.685Z,35.60
2017-08-11T21:31:57.799Z,33.67
2017-08-11T21:34:26.982Z,34.70
2017-08-11T21:36:56.416Z,34.10
2017-08-11T21:39:27.148Z,37.37
2017-08-11T21:41:56.730Z,35.87
2017-08-11T21:44:26.092Z,36.10
2017-08-11T21:46:55.478Z,36.47
2017-08-11T21:49:24.608Z,38.37
2017-08-11T21:51:53.684Z,35.50
2017-08-11T21:54:23.171Z,37.73
2017-08-11T21:56:52.510Z,43.27
2017-08-11T21:59:21.953Z,39.40
2017-08-11T22:01:51.398Z,40.27
2017-08-11T22:04:20.771Z,38.53
2017-08-11T22:06:50.197Z,38.00
2017-08-11T22:09:19.541Z,41.90
2017-08-11T22:11:49.083Z,39.83
2017-08-11T22:14:18.390Z,42.73
2017-08-11T22:16:47.636Z,45.57
2017-08-11T22:19:16.912Z,43.37
2017-08-11T22:21:46.285Z,44.27
2017-08-11T22:24:15.774Z,45.97
2017-08-11T22:26:44.993Z,47.23
2017-08-11T22:29:14.254Z,47.03
2017-08-11T22:31:43.418Z,48.20
2017-08-11T22:34:13.253Z,48.33
2017-08-11T22:36:42.298Z,45.20
2017-08-11T22:39:11.548Z,52.77
2017-08-11T22:41:41.679Z,48.33
2017-08-11T22:44:11.003Z,48.60
2017-08-11T22:46:40.289Z,49.30
2017-08-11T22:49:09.590Z,44.33
2017-08-11T22:51:38.334Z,47.13
2017-08-11T22:54:08.150Z,45.47
2017-08-11T22:56:37.229Z,51.70
2017-08-11T22:59:06.309Z,51.87
2017-08-11T23:01:35.817Z,48.70
2017-08-11T23:04:05.042Z,47.83
2017-08-11T23:06:34.188Z,47.87
2017-08-11T23:09:03.239Z,45.93
2017-08-11T23:11:33.254Z,47.07
2017-08-11T23:14:02.529Z,44.17
2017-08-11T23:16:32.037Z,48.20
2017-08-11T23:19:01.325Z,48.03
2017-08-11T23:25:48.317Z,45.67
2017-08-11T23:28:17.482Z,43.90
2017-08-11T23:30:46.706Z,47.10
2017-08-11T23:33:17.321Z,46.23
2017-08-11T23:35:46.697Z,48.70
2017-08-11T23:38:16.008Z,45.00
2017-08-11T23:40:45.432Z,42.17
2017-08-11T23:43:15.270Z,41.20
2017-08-11T23:45:44.679Z,45.63
2017-08-11T23:48:14.022Z,42.30
2017-08-11T23:50:43.074Z,43.47
2017-08-11T23:53:12.153Z,41.03
2017-08-11T23:55:40.922Z,41.40
2017-08-11T23:58:10.106Z,43.13
